Terminal Aerodrome Forecast
Issued by NWS Albany, NY

Home | Current Version | Previous Version | Text Only | Print | Product List | Glossary On
Versions: 1 2 3 4 5 6 7 8 9 10 11 12 13 14 15 16 17 18 19 20 21 22 23 24 25 26 27 28 29 30 31 32 33 34 35 36 37 38 39
000
FTUS41 KALY 160400 AAD
TAFPOU
TAF AMD
KPOU 160418Z 1604/1624 34009KT 3/4SM -SN BR OVC006
     FM160600 31012G20KT P6SM BKN050
     FM160900 31014KT P6SM SKC
     FM161400 33010KT P6SM SKC=

USA.gov is the U.S. government's official web portal to all federal, state and local government web resources and services.